首页
METAR-TAF:

METAR-TAF

机场 :

瓜地馬拉, 危地马拉

拉奥罗拉国际机场

纬度: 14-35N, 经度: 090-31W, 海拔: 1489米

当前天气观测

该预报发布于53分钟前的23:00 UTC
风速20节,风向
温度 16°C
湿度 63%
气压 1026 hPa
能见度10公里或以上
散云层高于2000英尺
多云层高于9000英尺

METAR: MGGT 182300Z 36020KT 9999 SCT020 BKN090 16/09 Q1026 A3030

时间: 17:53 (23:53 UTC)

预报

该预报发布于53分钟前的23:00 UTC
预报有效从19日的 00点(UTC)到 19日的 24点(UTC)
风速20节,风向
能见度10公里或以上
散云层高于1600英尺
多云层高于8000英尺
短暂存在
从 19日的 00点(UTC)到 19日的 12点(UTC)
风速16节,风向,有时为26节阵风
短暂存在
从 18日的 23点(UTC)到 19日的 12点(UTC)
能見度: 8000
多云层高于1400英尺
毛毛雨
成为
从 19日的 15点(UTC)到 19日的 17点(UTC)
风速16节,风向
散云层高于1800英尺

TAF: MGGT 182300Z 1900/1924 36020KT 9999 SCT016 BKN080 TX20/1920Z TN09/1912Z TEMPO 1900/1912 36016G26KT TEMPO 1823/1912 8000 DZ BKN014 BECMG 1915/1917 36016KT SCT018

超过4000个机场的气象观测和天气预报(METAR&TAF报告)。

可查询的气象台以黄色和红色小点在地图上表示。

将鼠标移到小点上方,可查看气象台名称。

然后点击查看天气观测和预报。

如需切换地图:点击带黑十字的绿色按钮放大地图;点击带横线的绿色按钮缩小地图;或者点击绿色箭头查看邻近地区的地图。


METAR-TAF: